sensor_id;sensor_type;location;lat;lon;timestamp;P1;durP1;ratioP1;P2;durP2;ratioP2
61907;SDS011;47864;52.526;19.672;2024-01-11T00:00:48;138.85;;;53.55;;
61907;SDS011;47864;52.526;19.672;2024-01-11T00:02:50;147.05;;;57.58;;
61907;SDS011;47864;52.526;19.672;2024-01-11T00:04:51;152.43;;;60.10;;
61907;SDS011;47864;52.526;19.672;2024-01-11T00:06:53;162.35;;;65.63;;
61907;SDS011;47864;52.526;19.672;2024-01-11T00:08:55;155.65;;;62.17;;
61907;SDS011;47864;52.526;19.672;2024-01-11T00:10:56;138.98;;;56.58;;
61907;SDS011;47864;52.526;19.672;2024-01-11T00:12:58;133.13;;;54.83;;
61907;SDS011;47864;52.526;19.672;2024-01-11T00:15:00;136.50;;;56.53;;
61907;SDS011;47864;52.526;19.672;2024-01-11T00:17:02;122.93;;;51.38;;
61907;SDS011;47864;52.526;19.672;2024-01-11T00:19:04;115.05;;;50.00;;
61907;SDS011;47864;52.526;19.672;2024-01-11T00:21:05;114.88;;;49.10;;
61907;SDS011;47864;52.526;19.672;2024-01-11T00:23:07;122.03;;;51.05;;
61907;SDS011;47864;52.526;19.672;2024-01-11T00:25:09;136.60;;;55.28;;
61907;SDS011;47864;52.526;19.672;2024-01-11T00:27:10;133.52;;;54.83;;
61907;SDS011;47864;52.526;19.672;2024-01-11T00:29:12;156.75;;;61.33;;
61907;SDS011;47864;52.526;19.672;2024-01-11T00:31:14;138.90;;;58.78;;
61907;SDS011;47864;52.526;19.672;2024-01-11T00:33:15;201.85;;;78.95;;
61907;SDS011;47864;52.526;19.672;2024-01-11T00:35:17;150.10;;;58.95;;
61907;SDS011;47864;52.526;19.672;2024-01-11T00:37:19;127.95;;;50.72;;
61907;SDS011;47864;52.526;19.672;2024-01-11T00:39:20;136.40;;;55.20;;
61907;SDS011;47864;52.526;19.672;2024-01-11T00:41:22;131.43;;;53.78;;
61907;SDS011;47864;52.526;19.672;2024-01-11T00:43:24;132.10;;;52.03;;
61907;SDS011;47864;52.526;19.672;2024-01-11T00:45:25;133.52;;;52.38;;
61907;SDS011;47864;52.526;19.672;2024-01-11T00:47:27;142.05;;;54.42;;
61907;SDS011;47864;52.526;19.672;2024-01-11T00:49:29;143.50;;;55.90;;
61907;SDS011;47864;52.526;19.672;2024-01-11T00:51:30;137.85;;;52.03;;
61907;SDS011;47864;52.526;19.672;2024-01-11T00:53:32;143.98;;;51.83;;
61907;SDS011;47864;52.526;19.672;2024-01-11T00:55:34;157.10;;;60.47;;
61907;SDS011;47864;52.526;19.672;2024-01-11T00:57:36;175.85;;;69.28;;
61907;SDS011;47864;52.526;19.672;2024-01-11T00:59:37;217.18;;;79.10;;
61907;SDS011;47864;52.526;19.672;2024-01-11T01:01:46;204.65;;;70.70;;
61907;SDS011;47864;52.526;19.672;2024-01-11T01:03:48;169.07;;;62.25;;
61907;SDS011;47864;52.526;19.672;2024-01-11T01:05:50;166.25;;;60.22;;
61907;SDS011;47864;52.526;19.672;2024-01-11T01:07:52;140.60;;;52.05;;
61907;SDS011;47864;52.526;19.672;2024-01-11T01:09:54;146.65;;;52.28;;
61907;SDS011;47864;52.526;19.672;2024-01-11T01:11:56;139.80;;;51.70;;
61907;SDS011;47864;52.526;19.672;2024-01-11T01:13:58;155.38;;;54.22;;
61907;SDS011;47864;52.526;19.672;2024-01-11T01:15:59;136.57;;;49.40;;
61907;SDS011;47864;52.526;19.672;2024-01-11T01:18:01;151.82;;;53.15;;
61907;SDS011;47864;52.526;19.672;2024-01-11T01:20:03;142.32;;;52.30;;
61907;SDS011;47864;52.526;19.672;2024-01-11T01:22:05;150.00;;;56.78;;
61907;SDS011;47864;52.526;19.672;2024-01-11T01:24:07;141.15;;;50.58;;
61907;SDS011;47864;52.526;19.672;2024-01-11T01:26:08;176.05;;;62.35;;
61907;SDS011;47864;52.526;19.672;2024-01-11T01:28:10;147.82;;;53.17;;
61907;SDS011;47864;52.526;19.672;2024-01-11T01:30:12;219.13;;;79.05;;
61907;SDS011;47864;52.526;19.672;2024-01-11T01:32:14;165.60;;;58.60;;
61907;SDS011;47864;52.526;19.672;2024-01-11T01:34:15;163.57;;;58.28;;
61907;SDS011;47864;52.526;19.672;2024-01-11T01:36:17;208.77;;;75.93;;
61907;SDS011;47864;52.526;19.672;2024-01-11T01:38:19;171.95;;;58.75;;
61907;SDS011;47864;52.526;19.672;2024-01-11T01:40:20;156.00;;;59.28;;
61907;SDS011;47864;52.526;19.672;2024-01-11T01:42:23;177.70;;;67.50;;
61907;SDS011;47864;52.526;19.672;2024-01-11T01:44:24;181.40;;;64.15;;
61907;SDS011;47864;52.526;19.672;2024-01-11T01:46:26;179.43;;;64.63;;
61907;SDS011;47864;52.526;19.672;2024-01-11T01:48:29;201.88;;;72.15;;
61907;SDS011;47864;52.526;19.672;2024-01-11T01:50:31;189.73;;;67.72;;
61907;SDS011;47864;52.526;19.672;2024-01-11T01:52:33;173.80;;;64.80;;
61907;SDS011;47864;52.526;19.672;2024-01-11T01:54:35;188.20;;;71.13;;
61907;SDS011;47864;52.526;19.672;2024-01-11T01:56:38;150.77;;;53.40;;
61907;SDS011;47864;52.526;19.672;2024-01-11T01:58:40;144.45;;;54.85;;
61907;SDS011;47864;52.526;19.672;2024-01-11T02:00:43;141.52;;;52.33;;
61907;SDS011;47864;52.526;19.672;2024-01-11T02:02:48;150.07;;;56.92;;
61907;SDS011;47864;52.526;19.672;2024-01-11T02:04:52;183.35;;;67.60;;
61907;SDS011;47864;52.526;19.672;2024-01-11T02:06:54;195.65;;;69.05;;
61907;SDS011;47864;52.526;19.672;2024-01-11T02:08:55;140.10;;;52.60;;
61907;SDS011;47864;52.526;19.672;2024-01-11T02:10:59;154.20;;;55.65;;
61907;SDS011;47864;52.526;19.672;2024-01-11T02:13:01;156.13;;;57.47;;
61907;SDS011;47864;52.526;19.672;2024-01-11T02:15:03;154.75;;;58.47;;
61907;SDS011;47864;52.526;19.672;2024-01-11T02:17:05;141.90;;;50.65;;
61907;SDS011;47864;52.526;19.672;2024-01-11T02:19:07;156.98;;;59.30;;
61907;SDS011;47864;52.526;19.672;2024-01-11T02:21:14;135.43;;;51.83;;
61907;SDS011;47864;52.526;19.672;2024-01-11T02:25:22;144.18;;;56.30;;
61907;SDS011;47864;52.526;19.672;2024-01-11T02:27:24;121.97;;;50.40;;
61907;SDS011;47864;52.526;19.672;2024-01-11T02:29:26;142.23;;;50.72;;
61907;SDS011;47864;52.526;19.672;2024-01-11T02:31:28;129.13;;;48.80;;
61907;SDS011;47864;52.526;19.672;2024-01-11T02:33:30;152.85;;;55.13;;
61907;SDS011;47864;52.526;19.672;2024-01-11T02:35:32;149.68;;;56.13;;
61907;SDS011;47864;52.526;19.672;2024-01-11T02:37:36;151.98;;;55.22;;
61907;SDS011;47864;52.526;19.672;2024-01-11T02:39:38;151.85;;;55.38;;
61907;SDS011;47864;52.526;19.672;2024-01-11T02:41:40;143.75;;;52.38;;
61907;SDS011;47864;52.526;19.672;2024-01-11T02:43:49;141.75;;;53.75;;
61907;SDS011;47864;52.526;19.672;2024-01-11T02:45:54;137.32;;;53.75;;
61907;SDS011;47864;52.526;19.672;2024-01-11T02:47:56;147.68;;;54.35;;
61907;SDS011;47864;52.526;19.672;2024-01-11T02:49:58;122.97;;;47.00;;
61907;SDS011;47864;52.526;19.672;2024-01-11T02:52:00;139.27;;;51.70;;
61907;SDS011;47864;52.526;19.672;2024-01-11T02:54:01;119.78;;;46.58;;
61907;SDS011;47864;52.526;19.672;2024-01-11T02:56:03;132.38;;;48.85;;
61907;SDS011;47864;52.526;19.672;2024-01-11T02:58:05;129.02;;;48.40;;
61907;SDS011;47864;52.526;19.672;2024-01-11T03:00:07;121.13;;;52.10;;
61907;SDS011;47864;52.526;19.672;2024-01-11T03:02:09;125.22;;;47.53;;
61907;SDS011;47864;52.526;19.672;2024-01-11T03:04:10;123.90;;;47.35;;
61907;SDS011;47864;52.526;19.672;2024-01-11T03:06:12;145.85;;;53.55;;
61907;SDS011;47864;52.526;19.672;2024-01-11T03:08:14;125.95;;;48.35;;
61907;SDS011;47864;52.526;19.672;2024-01-11T03:10:16;125.32;;;48.53;;
61907;SDS011;47864;52.526;19.672;2024-01-11T03:12:18;121.22;;;45.88;;
61907;SDS011;47864;52.526;19.672;2024-01-11T03:14:19;130.80;;;47.10;;
61907;SDS011;47864;52.526;19.672;2024-01-11T03:16:21;122.63;;;46.47;;
61907;SDS011;47864;52.526;19.672;2024-01-11T03:18:23;119.65;;;44.90;;
61907;SDS011;47864;52.526;19.672;2024-01-11T03:20:25;125.05;;;45.90;;
61907;SDS011;47864;52.526;19.672;2024-01-11T03:22:26;127.22;;;45.65;;
61907;SDS011;47864;52.526;19.672;2024-01-11T03:24:28;127.50;;;46.42;;
61907;SDS011;47864;52.526;19.672;2024-01-11T03:26:29;117.57;;;44.13;;
61907;SDS011;47864;52.526;19.672;2024-01-11T03:28:31;111.20;;;41.17;;
61907;SDS011;47864;52.526;19.672;2024-01-11T03:30:33;113.93;;;42.75;;
61907;SDS011;47864;52.526;19.672;2024-01-11T03:32:34;112.28;;;41.60;;
61907;SDS011;47864;52.526;19.672;2024-01-11T03:34:36;120.25;;;42.80;;
61907;SDS011;47864;52.526;19.672;2024-01-11T03:36:38;126.93;;;42.72;;
61907;SDS011;47864;52.526;19.672;2024-01-11T03:38:40;121.18;;;42.83;;
61907;SDS011;47864;52.526;19.672;2024-01-11T03:40:41;119.78;;;43.10;;
61907;SDS011;47864;52.526;19.672;2024-01-11T03:42:43;113.20;;;40.78;;
61907;SDS011;47864;52.526;19.672;2024-01-11T03:44:45;124.65;;;43.15;;
61907;SDS011;47864;52.526;19.672;2024-01-11T03:46:46;111.90;;;40.97;;
61907;SDS011;47864;52.526;19.672;2024-01-11T03:48:48;116.70;;;41.00;;
61907;SDS011;47864;52.526;19.672;2024-01-11T03:50:50;118.13;;;42.22;;
61907;SDS011;47864;52.526;19.672;2024-01-11T03:52:51;117.68;;;39.60;;
61907;SDS011;47864;52.526;19.672;2024-01-11T03:54:53;103.97;;;38.53;;
61907;SDS011;47864;52.526;19.672;2024-01-11T03:56:54;112.00;;;40.42;;
61907;SDS011;47864;52.526;19.672;2024-01-11T03:58:56;116.35;;;39.25;;
61907;SDS011;47864;52.526;19.672;2024-01-11T04:00:58;111.45;;;39.47;;
61907;SDS011;47864;52.526;19.672;2024-01-11T04:03:01;112.32;;;39.85;;
61907;SDS011;47864;52.526;19.672;2024-01-11T04:05:03;108.63;;;39.35;;
61907;SDS011;47864;52.526;19.672;2024-01-11T04:07:05;118.20;;;41.92;;
61907;SDS011;47864;52.526;19.672;2024-01-11T04:09:07;124.93;;;39.30;;
61907;SDS011;47864;52.526;19.672;2024-01-11T04:11:08;116.40;;;41.00;;
61907;SDS011;47864;52.526;19.672;2024-01-11T04:13:10;107.32;;;38.40;;
61907;SDS011;47864;52.526;19.672;2024-01-11T04:15:12;121.53;;;40.08;;
61907;SDS011;47864;52.526;19.672;2024-01-11T04:17:14;123.32;;;41.55;;
61907;SDS011;47864;52.526;19.672;2024-01-11T04:19:15;110.22;;;38.67;;
61907;SDS011;47864;52.526;19.672;2024-01-11T04:21:22;122.63;;;39.97;;
61907;SDS011;47864;52.526;19.672;2024-01-11T04:23:25;126.28;;;41.65;;
61907;SDS011;47864;52.526;19.672;2024-01-11T04:25:27;121.85;;;40.50;;
61907;SDS011;47864;52.526;19.672;2024-01-11T04:27:28;119.38;;;41.80;;
61907;SDS011;47864;52.526;19.672;2024-01-11T04:29:30;129.40;;;42.75;;
61907;SDS011;47864;52.526;19.672;2024-01-11T04:31:32;124.43;;;41.13;;
61907;SDS011;47864;52.526;19.672;2024-01-11T04:33:33;126.10;;;41.95;;
61907;SDS011;47864;52.526;19.672;2024-01-11T04:35:38;114.47;;;40.15;;
61907;SDS011;47864;52.526;19.672;2024-01-11T04:37:40;114.13;;;38.08;;
61907;SDS011;47864;52.526;19.672;2024-01-11T04:39:42;114.80;;;37.92;;
61907;SDS011;47864;52.526;19.672;2024-01-11T04:41:43;109.78;;;34.95;;
61907;SDS011;47864;52.526;19.672;2024-01-11T04:43:45;113.35;;;36.42;;
61907;SDS011;47864;52.526;19.672;2024-01-11T04:45:47;106.50;;;36.63;;
61907;SDS011;47864;52.526;19.672;2024-01-11T04:47:50;107.03;;;37.40;;
61907;SDS011;47864;52.526;19.672;2024-01-11T04:49:52;103.60;;;34.72;;
61907;SDS011;47864;52.526;19.672;2024-01-11T04:51:54;106.18;;;36.97;;
61907;SDS011;47864;52.526;19.672;2024-01-11T04:53:55;104.90;;;35.33;;
61907;SDS011;47864;52.526;19.672;2024-01-11T04:55:57;99.72;;;35.25;;
61907;SDS011;47864;52.526;19.672;2024-01-11T04:57:59;98.53;;;33.35;;
61907;SDS011;47864;52.526;19.672;2024-01-11T05:00:00;93.75;;;33.05;;
61907;SDS011;47864;52.526;19.672;2024-01-11T05:02:04;97.10;;;32.78;;
61907;SDS011;47864;52.526;19.672;2024-01-11T05:04:06;98.20;;;34.97;;
61907;SDS011;47864;52.526;19.672;2024-01-11T05:06:08;91.22;;;33.17;;
61907;SDS011;47864;52.526;19.672;2024-01-11T05:08:10;97.28;;;34.03;;
61907;SDS011;47864;52.526;19.672;2024-01-11T05:10:11;92.13;;;32.28;;
61907;SDS011;47864;52.526;19.672;2024-01-11T05:12:13;93.05;;;31.98;;
61907;SDS011;47864;52.526;19.672;2024-01-11T05:14:15;91.75;;;31.67;;
61907;SDS011;47864;52.526;19.672;2024-01-11T05:16:23;89.78;;;32.00;;
61907;SDS011;47864;52.526;19.672;2024-01-11T05:18:26;82.20;;;29.63;;
61907;SDS011;47864;52.526;19.672;2024-01-11T05:20:30;78.68;;;31.48;;
61907;SDS011;47864;52.526;19.672;2024-01-11T05:22:32;89.70;;;28.80;;
61907;SDS011;47864;52.526;19.672;2024-01-11T05:24:33;93.50;;;30.23;;
61907;SDS011;47864;52.526;19.672;2024-01-11T05:26:35;81.75;;;29.85;;
61907;SDS011;47864;52.526;19.672;2024-01-11T05:28:37;82.88;;;29.67;;
61907;SDS011;47864;52.526;19.672;2024-01-11T05:30:38;86.75;;;31.98;;
61907;SDS011;47864;52.526;19.672;2024-01-11T05:32:40;81.80;;;29.85;;
61907;SDS011;47864;52.526;19.672;2024-01-11T05:34:42;84.85;;;29.73;;
61907;SDS011;47864;52.526;19.672;2024-01-11T05:36:44;79.28;;;30.50;;
61907;SDS011;47864;52.526;19.672;2024-01-11T05:38:46;80.18;;;29.60;;
61907;SDS011;47864;52.526;19.672;2024-01-11T05:40:47;84.15;;;29.98;;
61907;SDS011;47864;52.526;19.672;2024-01-11T05:42:49;77.90;;;29.40;;
61907;SDS011;47864;52.526;19.672;2024-01-11T05:44:51;80.45;;;28.55;;
61907;SDS011;47864;52.526;19.672;2024-01-11T05:46:53;81.95;;;30.58;;
61907;SDS011;47864;52.526;19.672;2024-01-11T05:48:54;84.57;;;28.08;;
61907;SDS011;47864;52.526;19.672;2024-01-11T05:50:56;78.40;;;28.55;;
61907;SDS011;47864;52.526;19.672;2024-01-11T05:52:58;80.88;;;29.35;;
61907;SDS011;47864;52.526;19.672;2024-01-11T05:54:59;75.53;;;27.75;;
61907;SDS011;47864;52.526;19.672;2024-01-11T05:57:02;82.60;;;29.63;;
61907;SDS011;47864;52.526;19.672;2024-01-11T05:59:03;70.75;;;28.30;;
61907;SDS011;47864;52.526;19.672;2024-01-11T06:01:05;77.68;;;27.40;;
61907;SDS011;47864;52.526;19.672;2024-01-11T06:03:07;84.50;;;28.92;;
61907;SDS011;47864;52.526;19.672;2024-01-11T06:05:09;73.97;;;27.60;;
61907;SDS011;47864;52.526;19.672;2024-01-11T06:07:11;80.68;;;27.40;;
61907;SDS011;47864;52.526;19.672;2024-01-11T06:09:13;82.95;;;27.83;;
61907;SDS011;47864;52.526;19.672;2024-01-11T06:11:14;70.53;;;26.67;;
61907;SDS011;47864;52.526;19.672;2024-01-11T06:13:16;83.93;;;28.35;;
61907;SDS011;47864;52.526;19.672;2024-01-11T06:15:18;78.53;;;26.77;;
61907;SDS011;47864;52.526;19.672;2024-01-11T06:17:19;79.82;;;26.40;;
61907;SDS011;47864;52.526;19.672;2024-01-11T06:19:22;76.38;;;25.83;;
61907;SDS011;47864;52.526;19.672;2024-01-11T06:21:24;82.53;;;28.80;;
61907;SDS011;47864;52.526;19.672;2024-01-11T06:23:26;74.75;;;29.23;;
61907;SDS011;47864;52.526;19.672;2024-01-11T06:25:27;85.60;;;28.10;;
61907;SDS011;47864;52.526;19.672;2024-01-11T06:27:29;71.97;;;28.23;;
61907;SDS011;47864;52.526;19.672;2024-01-11T06:29:31;86.75;;;28.92;;
61907;SDS011;47864;52.526;19.672;2024-01-11T06:31:33;89.00;;;30.35;;
61907;SDS011;47864;52.526;19.672;2024-01-11T06:33:35;73.50;;;27.63;;
61907;SDS011;47864;52.526;19.672;2024-01-11T06:35:39;73.32;;;27.88;;
61907;SDS011;47864;52.526;19.672;2024-01-11T06:37:40;88.97;;;30.50;;
61907;SDS011;47864;52.526;19.672;2024-01-11T06:39:42;78.32;;;27.08;;
61907;SDS011;47864;52.526;19.672;2024-01-11T06:41:44;81.88;;;28.80;;
61907;SDS011;47864;52.526;19.672;2024-01-11T06:43:46;101.45;;;31.35;;
61907;SDS011;47864;52.526;19.672;2024-01-11T06:45:48;81.22;;;28.33;;
61907;SDS011;47864;52.526;19.672;2024-01-11T06:47:49;84.70;;;28.38;;
61907;SDS011;47864;52.526;19.672;2024-01-11T06:49:51;87.05;;;28.65;;
61907;SDS011;47864;52.526;19.672;2024-01-11T06:51:53;84.63;;;29.52;;
61907;SDS011;47864;52.526;19.672;2024-01-11T06:53:54;93.28;;;30.30;;
61907;SDS011;47864;52.526;19.672;2024-01-11T06:55:56;89.45;;;28.42;;
61907;SDS011;47864;52.526;19.672;2024-01-11T06:57:58;90.50;;;29.10;;
61907;SDS011;47864;52.526;19.672;2024-01-11T06:59:59;84.05;;;30.52;;
61907;SDS011;47864;52.526;19.672;2024-01-11T07:02:01;86.30;;;32.45;;
61907;SDS011;47864;52.526;19.672;2024-01-11T07:04:03;88.50;;;30.05;;
61907;SDS011;47864;52.526;19.672;2024-01-11T07:06:05;80.10;;;29.88;;
61907;SDS011;47864;52.526;19.672;2024-01-11T07:08:07;94.87;;;30.67;;
61907;SDS011;47864;52.526;19.672;2024-01-11T07:10:09;87.78;;;29.15;;
61907;SDS011;47864;52.526;19.672;2024-01-11T07:12:10;80.82;;;27.90;;
61907;SDS011;47864;52.526;19.672;2024-01-11T07:14:12;95.80;;;30.25;;
61907;SDS011;47864;52.526;19.672;2024-01-11T07:16:14;88.65;;;30.40;;
61907;SDS011;47864;52.526;19.672;2024-01-11T07:18:16;81.65;;;28.70;;
61907;SDS011;47864;52.526;19.672;2024-01-11T07:20:18;88.63;;;30.13;;
61907;SDS011;47864;52.526;19.672;2024-01-11T07:22:20;96.75;;;29.55;;
61907;SDS011;47864;52.526;19.672;2024-01-11T07:24:22;83.30;;;28.98;;
61907;SDS011;47864;52.526;19.672;2024-01-11T07:26:24;90.10;;;30.13;;
61907;SDS011;47864;52.526;19.672;2024-01-11T07:28:26;86.68;;;30.70;;
61907;SDS011;47864;52.526;19.672;2024-01-11T07:30:27;92.95;;;30.90;;
61907;SDS011;47864;52.526;19.672;2024-01-11T07:32:29;94.70;;;29.23;;
61907;SDS011;47864;52.526;19.672;2024-01-11T07:34:31;90.68;;;28.40;;
61907;SDS011;47864;52.526;19.672;2024-01-11T07:36:33;88.20;;;29.65;;
61907;SDS011;47864;52.526;19.672;2024-01-11T07:38:35;90.47;;;30.20;;
61907;SDS011;47864;52.526;19.672;2024-01-11T07:40:37;81.78;;;28.55;;
61907;SDS011;47864;52.526;19.672;2024-01-11T07:42:41;95.78;;;30.65;;
61907;SDS011;47864;52.526;19.672;2024-01-11T07:44:44;85.72;;;29.25;;
61907;SDS011;47864;52.526;19.672;2024-01-11T07:46:46;96.07;;;30.50;;
61907;SDS011;47864;52.526;19.672;2024-01-11T07:48:55;84.85;;;29.65;;
61907;SDS011;47864;52.526;19.672;2024-01-11T07:50:57;79.53;;;28.15;;
61907;SDS011;47864;52.526;19.672;2024-01-11T07:52:59;94.95;;;30.50;;
61907;SDS011;47864;52.526;19.672;2024-01-11T07:55:00;94.30;;;30.50;;
61907;SDS011;47864;52.526;19.672;2024-01-11T07:57:02;87.50;;;30.92;;
61907;SDS011;47864;52.526;19.672;2024-01-11T07:59:04;92.68;;;33.13;;
61907;SDS011;47864;52.526;19.672;2024-01-11T08:01:06;93.38;;;31.92;;
61907;SDS011;47864;52.526;19.672;2024-01-11T08:03:07;91.45;;;32.72;;
61907;SDS011;47864;52.526;19.672;2024-01-11T08:05:09;91.57;;;32.05;;
61907;SDS011;47864;52.526;19.672;2024-01-11T08:07:11;94.07;;;31.88;;
61907;SDS011;47864;52.526;19.672;2024-01-11T08:09:13;89.57;;;33.17;;
61907;SDS011;47864;52.526;19.672;2024-01-11T08:11:14;91.40;;;32.22;;
61907;SDS011;47864;52.526;19.672;2024-01-11T08:13:16;88.75;;;31.83;;
61907;SDS011;47864;52.526;19.672;2024-01-11T08:15:17;75.10;;;29.85;;
61907;SDS011;47864;52.526;19.672;2024-01-11T08:17:19;84.55;;;30.80;;
61907;SDS011;47864;52.526;19.672;2024-01-11T08:19:21;90.85;;;30.70;;
61907;SDS011;47864;52.526;19.672;2024-01-11T08:21:23;87.13;;;29.20;;
61907;SDS011;47864;52.526;19.672;2024-01-11T08:23:24;96.13;;;29.88;;
61907;SDS011;47864;52.526;19.672;2024-01-11T08:25:26;346.95;;;210.27;;
61907;SDS011;47864;52.526;19.672;2024-01-11T08:27:28;132.02;;;67.30;;
61907;SDS011;47864;52.526;19.672;2024-01-11T08:29:29;88.93;;;34.17;;
61907;SDS011;47864;52.526;19.672;2024-01-11T08:31:31;80.93;;;31.35;;
61907;SDS011;47864;52.526;19.672;2024-01-11T08:33:32;91.38;;;33.53;;
61907;SDS011;47864;52.526;19.672;2024-01-11T08:35:34;85.15;;;32.33;;
61907;SDS011;47864;52.526;19.672;2024-01-11T08:37:36;79.25;;;30.65;;
61907;SDS011;47864;52.526;19.672;2024-01-11T08:39:38;80.18;;;30.88;;
61907;SDS011;47864;52.526;19.672;2024-01-11T08:41:43;91.47;;;31.55;;
61907;SDS011;47864;52.526;19.672;2024-01-11T08:43:45;93.80;;;35.17;;
61907;SDS011;47864;52.526;19.672;2024-01-11T08:45:46;163.00;;;49.25;;
61907;SDS011;47864;52.526;19.672;2024-01-11T08:47:48;107.78;;;35.33;;
61907;SDS011;47864;52.526;19.672;2024-01-11T08:51:53;104.07;;;36.08;;
61907;SDS011;47864;52.526;19.672;2024-01-11T08:53:55;100.10;;;38.42;;
61907;SDS011;47864;52.526;19.672;2024-01-11T08:55:57;94.68;;;34.25;;
61907;SDS011;47864;52.526;19.672;2024-01-11T08:57:59;113.45;;;40.22;;
61907;SDS011;47864;52.526;19.672;2024-01-11T09:00:01;119.20;;;41.75;;
61907;SDS011;47864;52.526;19.672;2024-01-11T09:02:03;130.02;;;41.42;;
61907;SDS011;47864;52.526;19.672;2024-01-11T09:04:16;132.20;;;46.40;;
61907;SDS011;47864;52.526;19.672;2024-01-11T09:06:18;126.00;;;43.63;;
61907;SDS011;47864;52.526;19.672;2024-01-11T09:08:20;113.85;;;37.50;;
61907;SDS011;47864;52.526;19.672;2024-01-11T09:10:21;141.32;;;49.75;;
61907;SDS011;47864;52.526;19.672;2024-01-11T09:12:23;115.53;;;50.10;;
61907;SDS011;47864;52.526;19.672;2024-01-11T09:14:25;138.88;;;53.83;;
61907;SDS011;47864;52.526;19.672;2024-01-11T09:16:27;113.18;;;42.30;;
61907;SDS011;47864;52.526;19.672;2024-01-11T09:18:28;101.40;;;40.17;;
61907;SDS011;47864;52.526;19.672;2024-01-11T09:20:30;103.53;;;39.88;;
61907;SDS011;47864;52.526;19.672;2024-01-11T09:22:32;105.72;;;42.13;;
61907;SDS011;47864;52.526;19.672;2024-01-11T09:24:34;97.22;;;35.45;;
61907;SDS011;47864;52.526;19.672;2024-01-11T09:26:39;97.22;;;34.90;;
61907;SDS011;47864;52.526;19.672;2024-01-11T09:28:41;94.68;;;35.80;;
61907;SDS011;47864;52.526;19.672;2024-01-11T09:30:43;105.10;;;36.40;;
61907;SDS011;47864;52.526;19.672;2024-01-11T09:32:45;95.07;;;33.40;;
61907;SDS011;47864;52.526;19.672;2024-01-11T09:34:46;94.40;;;35.70;;
61907;SDS011;47864;52.526;19.672;2024-01-11T09:36:48;96.70;;;33.58;;
61907;SDS011;47864;52.526;19.672;2024-01-11T09:38:50;112.20;;;36.13;;
61907;SDS011;47864;52.526;19.672;2024-01-11T09:41:08;112.60;;;35.70;;
61907;SDS011;47864;52.526;19.672;2024-01-11T09:43:15;124.05;;;42.17;;
61907;SDS011;47864;52.526;19.672;2024-01-11T09:45:17;114.60;;;41.03;;
61907;SDS011;47864;52.526;19.672;2024-01-11T09:47:19;114.63;;;41.00;;
61907;SDS011;47864;52.526;19.672;2024-01-11T09:49:22;126.68;;;49.03;;
61907;SDS011;47864;52.526;19.672;2024-01-11T09:51:25;104.63;;;37.17;;
61907;SDS011;47864;52.526;19.672;2024-01-11T09:53:28;104.18;;;36.13;;
61907;SDS011;47864;52.526;19.672;2024-01-11T09:55:30;102.60;;;36.25;;
61907;SDS011;47864;52.526;19.672;2024-01-11T09:57:32;111.15;;;37.92;;
61907;SDS011;47864;52.526;19.672;2024-01-11T09:59:33;123.90;;;42.17;;
61907;SDS011;47864;52.526;19.672;2024-01-11T10:01:37;128.77;;;45.70;;
61907;SDS011;47864;52.526;19.672;2024-01-11T10:03:39;118.65;;;39.65;;
61907;SDS011;47864;52.526;19.672;2024-01-11T10:05:41;117.25;;;39.45;;
61907;SDS011;47864;52.526;19.672;2024-01-11T10:07:44;123.05;;;41.58;;
61907;SDS011;47864;52.526;19.672;2024-01-11T10:09:46;120.55;;;38.67;;
61907;SDS011;47864;52.526;19.672;2024-01-11T10:11:47;142.68;;;46.70;;
61907;SDS011;47864;52.526;19.672;2024-01-11T10:13:55;157.65;;;49.92;;
61907;SDS011;47864;52.526;19.672;2024-01-11T10:18:11;197.90;;;67.88;;
61907;SDS011;47864;52.526;19.672;2024-01-11T10:20:13;128.23;;;47.38;;
61907;SDS011;47864;52.526;19.672;2024-01-11T10:22:16;158.35;;;57.67;;
61907;SDS011;47864;52.526;19.672;2024-01-11T10:24:18;129.68;;;47.17;;
61907;SDS011;47864;52.526;19.672;2024-01-11T10:26:20;137.17;;;51.00;;
61907;SDS011;47864;52.526;19.672;2024-01-11T10:28:22;145.45;;;54.88;;
61907;SDS011;47864;52.526;19.672;2024-01-11T10:30:26;144.02;;;53.53;;
61907;SDS011;47864;52.526;19.672;2024-01-11T10:32:28;127.05;;;46.22;;
61907;SDS011;47864;52.526;19.672;2024-01-11T10:34:30;131.52;;;51.08;;
61907;SDS011;47864;52.526;19.672;2024-01-11T10:36:31;118.22;;;43.58;;
61907;SDS011;47864;52.526;19.672;2024-01-11T10:38:38;131.98;;;48.05;;
61907;SDS011;47864;52.526;19.672;2024-01-11T10:40:41;128.00;;;47.67;;
61907;SDS011;47864;52.526;19.672;2024-01-11T10:42:49;105.32;;;41.58;;
61907;SDS011;47864;52.526;19.672;2024-01-11T10:44:54;135.63;;;48.50;;
61907;SDS011;47864;52.526;19.672;2024-01-11T10:46:56;160.57;;;60.88;;
61907;SDS011;47864;52.526;19.672;2024-01-11T10:49:00;139.88;;;52.83;;
61907;SDS011;47864;52.526;19.672;2024-01-11T10:51:07;125.30;;;44.97;;
61907;SDS011;47864;52.526;19.672;2024-01-11T10:53:35;139.98;;;51.70;;
61907;SDS011;47864;52.526;19.672;2024-01-11T10:55:42;132.95;;;47.95;;
61907;SDS011;47864;52.526;19.672;2024-01-11T10:57:45;123.18;;;48.10;;
61907;SDS011;47864;52.526;19.672;2024-01-11T10:59:50;120.53;;;43.22;;
61907;SDS011;47864;52.526;19.672;2024-01-11T11:01:53;154.45;;;59.97;;
61907;SDS011;47864;52.526;19.672;2024-01-11T11:03:56;113.13;;;44.28;;
61907;SDS011;47864;52.526;19.672;2024-01-11T11:06:00;114.15;;;43.45;;
61907;SDS011;47864;52.526;19.672;2024-01-11T11:08:02;114.78;;;43.58;;
61907;SDS011;47864;52.526;19.672;2024-01-11T11:10:06;115.32;;;42.80;;
61907;SDS011;47864;52.526;19.672;2024-01-11T11:12:10;120.40;;;46.95;;
61907;SDS011;47864;52.526;19.672;2024-01-11T11:14:13;103.85;;;39.15;;
61907;SDS011;47864;52.526;19.672;2024-01-11T11:16:16;92.10;;;35.75;;
61907;SDS011;47864;52.526;19.672;2024-01-11T11:18:18;89.30;;;36.28;;
61907;SDS011;47864;52.526;19.672;2024-01-11T11:20:20;112.77;;;42.27;;
61907;SDS011;47864;52.526;19.672;2024-01-11T11:22:22;111.55;;;44.95;;
61907;SDS011;47864;52.526;19.672;2024-01-11T11:24:24;111.05;;;44.45;;
61907;SDS011;47864;52.526;19.672;2024-01-11T11:26:26;105.38;;;44.53;;
61907;SDS011;47864;52.526;19.672;2024-01-11T11:28:28;96.88;;;38.83;;
61907;SDS011;47864;52.526;19.672;2024-01-11T11:30:30;97.82;;;38.42;;
61907;SDS011;47864;52.526;19.672;2024-01-11T11:32:36;75.32;;;33.53;;
61907;SDS011;47864;52.526;19.672;2024-01-11T11:34:42;76.57;;;32.03;;
61907;SDS011;47864;52.526;19.672;2024-01-11T11:36:48;86.82;;;35.58;;
61907;SDS011;47864;52.526;19.672;2024-01-11T11:38:51;88.15;;;36.15;;
61907;SDS011;47864;52.526;19.672;2024-01-11T11:40:54;80.38;;;32.78;;
61907;SDS011;47864;52.526;19.672;2024-01-11T11:42:58;87.47;;;32.92;;
61907;SDS011;47864;52.526;19.672;2024-01-11T11:45:02;89.78;;;36.83;;